Pownal Center, Vermont
Current Conditions -  °F | °C
As of 7:52 PM on Wednesday 17 Dec 2014 (Local Time) from KAQW Reporting Station
Light Snow Light Snow  
Wind Chill: 28°   Ceiling: 1900
Heat Index: 35°   Visibility: 9mi
Dew Point: 31°   Wind: 9mph
Humidity: 85%   Direction: 260°W
Pressure: 29.83"   Gusts: NA
Location:  42.7845°N, 73.2029°W
Report Text: KAQW 180052Z AUTO 26008KT 9SM -SN OVC019 02/M01 A2983 RMK AO2 UPB30E44SNB44 SLP107 P0000 T00171006
Loading
Personal Weather Stations






























Interactive Weather Map New forecast layout! Learn more

10-Day Weather Forecast

Advertisements
Track Severe Weather on mobile